Time;durP1;ratioP1;P1;durP2;ratioP2;P2;SDS_P1;SDS_P2;PMS_P1;PMS_P2;Temp;Humidity;BMP_temperature;BMP_pressure;BME280_temperature;BME280_humidity;BME280_pressure;Samples;Min_cycle;Max_cycle;Signal;HPM_P1;HPM_P2
2023/08/18 00:01:56;;;;;;;20.55;10.95;;;18.30;76.80;;;;;;9166965;19;20018;-70
2023/08/18 00:05:03;;;;;;;18.80;11.20;;;18.30;77.00;;;;;;9167312;19;20082;-70
2023/08/18 00:08:11;;;;;;;15.68;10.02;;;18.20;77.00;;;;;;9164211;19;20021;-69
2023/08/18 00:11:19;;;;;;;21.63;11.73;;;18.20;77.10;;;;;;9166149;19;20515;-69
2023/08/18 00:14:24;;;;;;;19.92;12.13;;;18.20;77.00;;;;;;9164899;19;20029;-69
2023/08/18 00:17:32;;;;;;;29.10;12.32;;;18.20;77.10;;;;;;9165225;19;20353;-69
2023/08/18 00:20:37;;;;;;;21.08;12.20;;;18.20;77.10;;;;;;9167050;19;20025;-70
2023/08/18 00:23:48;;;;;;;23.77;11.38;;;18.20;77.10;;;;;;9165110;19;20014;-69
2023/08/18 00:26:53;;;;;;;20.15;11.77;;;18.20;77.20;;;;;;9163110;19;20909;-70
2023/08/18 00:30:01;;;;;;;28.33;11.57;;;18.20;77.20;;;;;;9164553;19;20388;-69
2023/08/18 00:33:07;;;;;;;23.02;11.32;;;18.20;77.30;;;;;;9164671;19;20801;-71
2023/08/18 00:36:14;;;;;;;22.38;10.35;;;18.20;77.30;;;;;;9164019;19;20022;-73
2023/08/18 00:39:24;;;;;;;20.00;11.15;;;18.10;77.30;;;;;;9162992;19;20015;-71
2023/08/18 00:42:32;;;;;;;19.08;10.57;;;18.10;77.40;;;;;;9165360;19;20025;-69
2023/08/18 00:45:37;;;;;;;19.58;10.00;;;18.10;77.40;;;;;;9164109;19;20089;-69
2023/08/18 00:48:45;;;;;;;15.68;8.95;;;18.10;77.50;;;;;;9161790;19;20030;-70
2023/08/18 00:51:51;;;;;;;21.05;9.40;;;18.10;77.50;;;;;;9165868;19;20007;-72
2023/08/18 00:55:02;;;;;;;14.32;8.43;;;18.10;77.50;;;;;;9165491;19;20041;-72
2023/08/18 00:58:08;;;;;;;14.57;9.10;;;18.10;77.60;;;;;;9159746;19;20010;-72
2023/08/18 01:01:16;;;;;;;22.60;10.23;;;18.10;77.60;;;;;;9160890;19;20019;-69
2023/08/18 01:04:22;;;;;;;20.23;8.73;;;18.10;77.60;;;;;;9163088;19;20037;-71
2023/08/18 01:07:31;;;;;;;18.65;9.55;;;18.00;77.60;;;;;;9161392;19;20018;-69
2023/08/18 01:10:48;;;;;;;19.85;8.88;;;18.00;77.70;;;;;;9165209;19;20779;-70
2023/08/18 01:14:04;;;;;;;21.73;8.80;;;18.00;77.80;;;;;;9162922;19;20014;-72
2023/08/18 01:17:11;;;;;;;;;;;18.00;77.70;;;;;;9165806;19;20488;-69
2023/08/18 01:20:21;;;;;;;16.75;8.43;;;18.00;77.50;;;;;;9162862;19;19922;-69
2023/08/18 01:23:38;;;;;;;20.55;9.20;;;17.90;77.60;;;;;;9162000;19;20021;-71
2023/08/18 01:26:46;;;;;;;15.38;9.07;;;18.00;77.80;;;;;;9161694;19;20029;-70
2023/08/18 01:30:16;;;;;;;16.08;8.70;;;17.90;77.70;;;;;;9163697;19;20368;-71
2023/08/18 01:33:27;;;;;;;16.83;8.60;;;17.90;77.90;;;;;;9161471;19;20022;-69
2023/08/18 01:36:37;;;;;;;16.88;8.43;;;17.90;77.90;;;;;;9162808;19;20021;-70
2023/08/18 01:39:48;;;;;;;18.00;9.48;;;17.90;78.00;;;;;;9163623;19;20022;-70
2023/08/18 01:42:54;;;;;;;13.32;7.97;;;17.90;78.10;;;;;;9161532;19;20082;-70
2023/08/18 01:46:03;;;;;;;16.42;8.45;;;17.90;78.10;;;;;;9163266;19;20003;-70
2023/08/18 01:49:08;;;;;;;13.57;7.78;;;17.90;78.10;;;;;;9159653;19;20015;-71
2023/08/18 01:52:16;;;;;;;17.60;7.97;;;17.90;78.70;;;;;;9161676;19;20098;-70
2023/08/18 01:55:26;;;;;;;12.85;7.93;;;17.90;78.10;;;;;;9160810;19;20014;-71
2023/08/18 01:58:33;;;;;;;14.50;7.38;;;17.90;78.20;;;;;;9156566;19;20022;-70
2023/08/18 02:01:40;;;;;;;14.82;7.97;;;17.90;78.10;;;;;;9160950;19;20015;-69
2023/08/18 02:04:48;;;;;;;14.38;8.15;;;17.90;78.10;;;;;;9162367;19;20018;-70
2023/08/18 02:07:53;;;;;;;19.52;7.95;;;17.90;78.20;;;;;;9159742;19;20014;-70
2023/08/18 02:11:07;;;;;;;13.27;7.05;;;17.90;78.20;;;;;;9160804;19;20022;-70
2023/08/18 02:14:13;;;;;;;16.13;7.32;;;17.90;78.30;;;;;;9162002;19;20021;-70
2023/08/18 02:17:21;;;;;;;16.77;7.35;;;17.90;78.20;;;;;;9160090;19;20018;-69
2023/08/18 02:20:28;;;;;;;17.13;6.80;;;17.90;78.20;;;;;;9161985;19;20342;-71
2023/08/18 02:23:36;;;;;;;14.57;7.50;;;17.90;78.30;;;;;;9160106;19;20014;-69
2023/08/18 02:26:44;;;;;;;17.17;7.70;;;17.90;78.30;;;;;;9161134;19;20018;-71
2023/08/18 02:30:12;;;;;;;12.50;7.65;;;17.90;78.40;;;;;;9160907;19;20022;-70
2023/08/18 02:33:18;;;;;;;13.70;7.75;;;17.90;78.40;;;;;;9159089;19;20821;-70
2023/08/18 02:36:27;;;;;;;16.65;7.43;;;17.90;78.40;;;;;;9162358;19;20014;-70
2023/08/18 02:39:32;;;;;;;14.23;8.25;;;17.90;78.40;;;;;;9161910;19;20502;-71
2023/08/18 02:42:43;;;;;;;15.25;8.05;;;17.90;78.50;;;;;;9161313;19;20653;-72
2023/08/18 02:45:49;;;;;;;15.50;7.57;;;17.90;78.50;;;;;;9159595;19;20015;-71
2023/08/18 02:48:56;;;;;;;14.25;7.57;;;17.80;79.10;;;;;;9156705;19;20018;-71
2023/08/18 02:52:03;;;;;;;21.75;9.23;;;17.80;78.60;;;;;;9160333;19;20472;-71
2023/08/18 02:55:11;;;;;;;16.90;8.45;;;17.90;78.60;;;;;;9159194;19;20022;-70
2023/08/18 02:58:19;;;;;;;14.38;8.30;;;17.90;78.60;;;;;;9154259;19;20021;-71
2023/08/18 03:01:26;;;;;;;15.93;8.20;;;17.90;78.70;;;;;;9157769;19;20348;-68
2023/08/18 03:04:32;;;;;;;12.82;7.65;;;17.90;78.60;;;;;;9160511;19;20015;-71
2023/08/18 03:07:39;;;;;;;17.08;9.00;;;17.90;78.70;;;;;;9158350;19;20018;-73
2023/08/18 03:10:45;;;;;;;17.00;9.27;;;17.90;78.70;;;;;;9160849;19;20022;-69
2023/08/18 03:13:56;;;;;;;20.27;10.05;;;17.80;78.80;;;;;;9158785;19;20014;-71
2023/08/18 03:17:01;;;;;;;16.55;9.05;;;17.90;78.90;;;;;;9160016;19;20029;-69
2023/08/18 03:20:11;;;;;;;16.92;8.10;;;17.80;78.80;;;;;;9160221;19;20381;-69
2023/08/18 03:23:18;;;;;;;18.90;8.30;;;17.90;78.90;;;;;;9162322;19;20463;-69
2023/08/18 03:26:26;;;;;;;19.40;8.88;;;17.90;79.00;;;;;;9166865;19;20492;-71
2023/08/18 03:29:35;;;;;;;16.75;9.10;;;17.90;78.90;;;;;;9166038;19;20380;-71
2023/08/18 03:32:43;;;;;;;20.45;9.35;;;17.90;79.60;;;;;;9166624;19;20029;-71
2023/08/18 03:35:51;;;;;;;17.48;8.63;;;17.90;78.90;;;;;;9166097;19;20029;-71
2023/08/18 03:38:58;;;;;;;15.13;9.20;;;17.90;78.90;;;;;;9168450;19;20503;-70
2023/08/18 03:42:03;;;;;;;16.20;8.75;;;17.90;78.90;;;;;;9168762;19;20368;-70
2023/08/18 03:45:14;;;;;;;18.55;9.45;;;17.90;78.90;;;;;;9166189;19;20022;-70
2023/08/18 03:48:21;;;;;;;18.42;9.10;;;17.90;79.00;;;;;;9164038;19;20029;-69
2023/08/18 03:51:28;;;;;;;17.85;9.52;;;17.90;79.00;;;;;;9166681;19;20147;-71
2023/08/18 03:54:34;;;;;;;18.65;10.00;;;18.00;79.10;;;;;;9166057;19;20021;-71
2023/08/18 03:57:41;;;;;;;20.40;9.02;;;17.90;79.00;;;;;;9163438;19;20018;-70
2023/08/18 04:00:51;;;;;;;19.90;9.20;;;18.00;79.10;;;;;;9165526;19;20007;-71
2023/08/18 04:04:01;;;;;;;20.23;9.88;;;17.90;79.20;;;;;;9166874;19;20026;-72
2023/08/18 04:07:08;;;;;;;18.92;9.98;;;18.00;79.20;;;;;;9167027;19;20010;-70
2023/08/18 04:10:16;;;;;;;17.88;9.00;;;18.00;79.20;;;;;;9163484;19;20115;-71
2023/08/18 04:13:21;;;;;;;21.40;10.25;;;18.00;79.30;;;;;;9165173;19;20018;-71
2023/08/18 04:16:32;;;;;;;20.33;9.95;;;18.00;79.20;;;;;;9165021;19;20019;-72
2023/08/18 04:19:38;;;;;;;16.50;9.23;;;18.00;79.30;;;;;;9165567;19;20044;-70
2023/08/18 04:22:46;;;;;;;18.55;9.55;;;18.00;79.20;;;;;;9164416;19;20357;-70
2023/08/18 04:25:53;;;;;;;16.45;8.63;;;18.00;79.30;;;;;;9164961;19;20022;-71
2023/08/18 04:29:10;;;;;;;16.02;9.15;;;18.10;79.40;;;;;;9164996;19;20025;-70
2023/08/18 04:32:18;;;;;;;18.40;8.77;;;18.10;79.50;;;;;;9166087;19;20472;-70
2023/08/18 04:35:26;;;;;;;16.35;9.38;;;18.10;79.40;;;;;;9161636;19;20021;-69
2023/08/18 04:38:32;;;;;;;16.77;9.45;;;18.10;79.30;;;;;;9164218;19;20014;-69
2023/08/18 04:41:42;;;;;;;25.60;10.15;;;18.10;79.40;;;;;;9163433;19;20014;-70
2023/08/18 04:44:51;;;;;;;20.23;10.20;;;18.10;79.30;;;;;;9163784;19;20018;-70
2023/08/18 04:48:02;;;;;;;25.55;10.77;;;18.20;79.40;;;;;;9162961;19;20018;-70
2023/08/18 04:51:10;;;;;;;16.15;9.27;;;18.10;79.40;;;;;;9163499;19;20026;-70
2023/08/18 04:54:17;;;;;;;19.17;9.80;;;18.20;79.50;;;;;;9164237;19;20026;-68
2023/08/18 04:57:23;;;;;;;15.95;10.18;;;18.20;79.50;;;;;;9161077;19;20507;-71
2023/08/18 05:00:31;;;;;;;19.27;10.43;;;18.20;79.40;;;;;;9165264;19;20456;-70
2023/08/18 05:03:40;;;;;;;20.60;9.95;;;18.20;79.40;;;;;;9163771;19;20052;-70
2023/08/18 05:06:47;;;;;;;20.52;9.50;;;18.20;79.50;;;;;;9165269;19;20571;-70
2023/08/18 05:09:53;;;;;;;23.75;9.98;;;18.20;79.40;;;;;;9156396;19;20018;-71
2023/08/18 05:13:00;;;;;;;21.90;10.15;;;18.20;80.10;;;;;;9158772;19;20022;-71
2023/08/18 05:16:07;;;;;;;19.17;10.15;;;18.20;79.60;;;;;;9157046;19;20014;-71
2023/08/18 05:19:17;;;;;;;17.00;10.43;;;18.20;79.50;;;;;;9159074;19;20023;-72
2023/08/18 05:22:23;;;;;;;19.73;11.02;;;18.30;79.70;;;;;;9152318;19;20045;-70
2023/08/18 05:25:32;;;;;;;21.23;9.98;;;18.20;79.60;;;;;;9156635;19;20025;-71
2023/08/18 05:28:39;;;;;;;19.30;9.77;;;18.30;79.60;;;;;;9156859;19;20487;-71
2023/08/18 05:31:47;;;;;;;19.73;10.38;;;18.30;79.60;;;;;;9155328;19;20071;-72
2023/08/18 05:34:58;;;;;;;23.35;10.60;;;18.30;79.70;;;;;;9170809;19;20110;-69
2023/08/18 05:38:10;;;;;;;20.05;10.45;;;18.30;79.80;;;;;;9176152;19;20054;-69
2023/08/18 05:41:16;;;;;;;20.15;11.02;;;18.30;79.70;;;;;;9179804;19;20465;-70
2023/08/18 05:44:24;;;;;;;19.85;10.82;;;18.30;79.70;;;;;;9178652;19;20029;-70
2023/08/18 05:47:31;;;;;;;21.55;11.05;;;18.40;79.70;;;;;;9176684;19;20030;-71
2023/08/18 05:50:41;;;;;;;20.77;10.13;;;18.40;79.70;;;;;;9175222;19;20492;-70
2023/08/18 05:53:47;;;;;;;23.20;10.75;;;18.40;79.80;;;;;;9176797;19;20025;-70
2023/08/18 05:56:54;;;;;;;19.95;10.40;;;18.40;79.70;;;;;;9170812;19;20373;-70
2023/08/18 06:00:00;;;;;;;21.13;10.82;;;18.40;79.80;;;;;;9178600;19;20048;-70
2023/08/18 06:03:08;;;;;;;18.25;10.82;;;18.40;79.80;;;;;;9178608;19;20011;-70
2023/08/18 06:06:16;;;;;;;24.17;10.85;;;18.40;79.80;;;;;;9177778;19;20902;-70
2023/08/18 06:09:26;;;;;;;20.17;10.13;;;18.40;79.90;;;;;;9177119;19;20035;-71
2023/08/18 06:12:34;;;;;;;14.40;9.00;;;18.40;79.90;;;;;;9176969;19;20015;-70
2023/08/18 06:15:42;;;;;;;17.38;9.02;;;18.40;79.80;;;;;;9178339;19;20022;-70
2023/08/18 06:18:48;;;;;;;16.67;9.00;;;18.50;80.00;;;;;;9175410;19;20017;-71
2023/08/18 06:21:58;;;;;;;22.48;10.23;;;18.50;79.90;;;;;;9175624;19;20014;-70
2023/08/18 06:25:03;;;;;;;13.07;8.85;;;18.50;79.90;;;;;;9177113;19;20017;-69
2023/08/18 06:28:11;;;;;;;16.88;9.73;;;18.50;79.90;;;;;;9176732;19;20022;-70
2023/08/18 06:31:16;;;;;;;16.02;8.60;;;18.50;79.80;;;;;;9175170;19;20118;-70
2023/08/18 06:34:23;;;;;;;19.90;9.52;;;18.50;79.90;;;;;;9176725;19;20014;-69
2023/08/18 06:37:31;;;;;;;15.77;8.88;;;18.50;79.90;;;;;;9175908;19;20018;-70
2023/08/18 06:40:39;;;;;;;17.58;8.05;;;18.50;80.00;;;;;;9175692;19;20423;-71
2023/08/18 06:43:44;;;;;;;17.67;9.30;;;18.50;80.00;;;;;;9175235;19;20034;-69
2023/08/18 06:46:51;;;;;;;13.00;7.68;;;18.60;80.00;;;;;;9175353;19;20022;-70
2023/08/18 06:50:05;;;;;;;17.85;9.38;;;18.60;80.00;;;;;;9173877;19;20521;-70
2023/08/18 06:53:20;;;;;;;17.92;8.38;;;18.60;80.10;;;;;;9176288;19;20014;-70
2023/08/18 06:56:26;;;;;;;17.02;9.27;;;18.60;80.10;;;;;;9170162;19;20010;-70
2023/08/18 06:59:33;;;;;;;16.67;9.82;;;18.60;80.20;;;;;;9182129;19;20476;-70
2023/08/18 07:02:46;;;;;;;19.15;9.35;;;18.60;80.20;;;;;;9185143;19;20060;-71
2023/08/18 07:05:58;;;;;;;20.65;10.80;;;18.60;80.20;;;;;;9184643;19;20479;-70
2023/08/18 07:09:06;;;;;;;21.10;12.90;;;18.60;80.30;;;;;;9184530;19;20018;-71
2023/08/18 07:12:15;;;;;;;26.00;13.50;;;18.60;80.30;;;;;;9180400;19;20022;-71
2023/08/18 07:15:22;;;;;;;23.30;13.05;;;18.70;80.40;;;;;;9184253;19;20026;-70
2023/08/18 07:18:30;;;;;;;19.13;12.15;;;18.70;80.40;;;;;;9184022;19;20015;-71
2023/08/18 07:21:38;;;;;;;18.15;9.65;;;18.70;80.40;;;;;;9183304;19;20047;-71
2023/08/18 07:24:48;;;;;;;16.33;8.75;;;18.80;80.50;;;;;;9184473;19;20037;-71
2023/08/18 07:27:54;;;;;;;16.63;8.95;;;18.90;80.60;;;;;;9183684;19;20015;-70
2023/08/18 07:31:05;;;;;;;12.75;6.55;;;18.90;80.50;;;;;;9183482;19;20024;-70
2023/08/18 07:34:10;;;;;;;10.32;6.88;;;19.00;80.50;;;;;;9182929;19;20021;-70
2023/08/18 07:37:18;;;;;;;12.25;6.35;;;19.10;80.40;;;;;;9182266;19;20483;-70
2023/08/18 07:40:44;;;;;;;10.63;6.20;;;19.10;80.40;;;;;;9182171;19;20055;-69
2023/08/18 07:43:51;;;;;;;10.95;5.68;;;19.20;80.30;;;;;;9183763;19;20011;-70
2023/08/18 07:46:57;;;;;;;11.00;5.22;;;19.20;80.30;;;;;;9183357;19;20014;-70
2023/08/18 07:50:07;;;;;;;13.07;6.22;;;19.30;80.30;;;;;;9182347;19;20018;-70
2023/08/18 07:53:12;;;;;;;9.93;5.97;;;19.30;80.40;;;;;;9183381;19;20491;-71
2023/08/18 07:56:25;;;;;;;14.27;6.72;;;19.30;80.30;;;;;;9178675;19;20014;-69
2023/08/18 07:59:30;;;;;;;11.48;7.00;;;19.40;80.40;;;;;;9182832;19;20014;-71
2023/08/18 08:02:38;;;;;;;13.63;7.18;;;19.40;80.30;;;;;;9183840;19;20510;-70
2023/08/18 08:05:47;;;;;;;12.65;6.88;;;19.50;80.30;;;;;;9180470;19;20003;-71
2023/08/18 08:08:54;;;;;;;14.75;6.93;;;19.50;80.20;;;;;;9180520;19;20010;-71
2023/08/18 08:12:03;;;;;;;12.52;6.80;;;19.50;80.20;;;;;;9181006;19;20018;-72
2023/08/18 08:15:13;;;;;;;11.95;7.18;;;19.50;80.20;;;;;;9181024;19;20056;-70
2023/08/18 08:18:21;;;;;;;12.50;7.35;;;19.50;80.20;;;;;;9180283;19;20022;-72
2023/08/18 08:21:28;;;;;;;11.88;7.30;;;19.60;80.20;;;;;;9181756;19;20015;-70
2023/08/18 08:24:37;;;;;;;16.58;9.00;;;19.60;80.20;;;;;;9181981;19;20399;-70
2023/08/18 08:27:53;;;;;;;16.80;8.63;;;19.60;80.20;;;;;;9178238;19;20025;-71
2023/08/18 08:31:02;;;;;;;14.82;7.75;;;19.70;80.20;;;;;;9177433;19;20018;-71
2023/08/18 08:34:12;;;;;;;16.88;8.77;;;19.60;80.10;;;;;;9179333;19;20480;-71
2023/08/18 08:37:18;;;;;;;13.57;8.05;;;19.70;80.20;;;;;;9181299;19;20018;-70
2023/08/18 08:40:29;;;;;;;15.85;9.25;;;19.70;80.20;;;;;;9179020;19;20022;-71
2023/08/18 08:43:37;;;;;;;17.60;8.35;;;19.70;80.30;;;;;;9180261;19;20085;-71
2023/08/18 08:46:46;;;;;;;15.90;8.13;;;19.70;80.40;;;;;;9179314;19;20029;-71
2023/08/18 08:49:58;;;;;;;18.98;8.88;;;19.70;80.30;;;;;;9176126;19;20062;-70
2023/08/18 08:53:09;;;;;;;13.07;7.72;;;19.80;80.30;;;;;;9176165;19;20018;-69
2023/08/18 08:56:17;;;;;;;16.02;7.53;;;19.90;80.30;;;;;;9173546;19;20415;-71
2023/08/18 08:59:29;;;;;;;19.45;7.72;;;19.90;80.30;;;;;;9179004;19;20018;-70
2023/08/18 09:02:38;;;;;;;13.65;7.97;;;20.00;80.30;;;;;;9177569;19;20698;-70
2023/08/18 09:05:45;;;;;;;13.50;7.80;;;20.00;80.30;;;;;;9178056;19;20010;-70
2023/08/18 09:08:51;;;;;;;15.38;8.43;;;20.10;80.30;;;;;;9178063;19;20026;-70
2023/08/18 09:12:06;;;;;;;14.65;7.68;;;20.20;80.20;;;;;;9176960;19;20098;-71
2023/08/18 09:15:17;;;;;;;14.25;7.60;;;20.20;80.10;;;;;;9176629;19;20735;-71
2023/08/18 09:18:25;;;;;;;15.95;8.93;;;20.30;80.20;;;;;;9178588;19;20018;-71
2023/08/18 09:21:35;;;;;;;16.27;8.60;;;20.30;80.10;;;;;;9175100;19;20431;-70
2023/08/18 09:24:42;;;;;;;14.85;8.73;;;20.40;80.20;;;;;;9177909;19;20011;-71
2023/08/18 09:27:48;;;;;;;16.38;9.25;;;20.40;80.00;;;;;;9177095;19;20015;-73
2023/08/18 09:31:01;;;;;;;13.43;8.23;;;20.50;80.00;;;;;;9176211;19;20052;-75
2023/08/18 09:34:24;;;;;;;14.95;8.60;;;20.50;80.00;;;;;;9177691;19;20444;-78
2023/08/18 09:37:45;;;;;;;19.52;9.35;;;20.60;80.00;;;;;;9176083;19;20022;-77
2023/08/18 09:40:57;;;;;;;17.15;8.82;;;20.60;79.90;;;;;;9176368;19;20361;-76
2023/08/18 09:44:07;;;;;;;14.73;8.73;;;20.70;79.90;;;;;;9171468;19;20029;-75
2023/08/18 09:47:21;;;;;;;17.58;9.43;;;20.70;79.80;;;;;;9173855;19;20468;-75
2023/08/18 09:50:32;;;;;;;18.75;8.52;;;20.80;79.90;;;;;;9174114;19;20488;-76
2023/08/18 09:53:40;;;;;;;16.35;8.98;;;20.90;79.90;;;;;;9174088;19;20403;-75
2023/08/18 09:56:53;;;;;;;15.50;9.25;;;20.90;79.80;;;;;;9169460;19;20037;-76
2023/08/18 10:00:01;;;;;;;19.10;10.20;;;20.90;79.80;;;;;;9175179;19;20882;-76
2023/08/18 10:03:27;;;;;;;19.20;10.15;;;21.00;79.80;;;;;;9171785;19;20112;-75
2023/08/18 10:06:39;;;;;;;15.18;8.50;;;21.00;79.80;;;;;;9171969;19;20006;-74
2023/08/18 10:09:48;;;;;;;18.60;10.02;;;21.10;79.80;;;;;;9172966;19;20014;-73
2023/08/18 10:13:00;;;;;;;14.20;9.25;;;21.20;79.80;;;;;;9170087;19;20088;-76
2023/08/18 10:16:11;;;;;;;14.82;9.75;;;21.30;79.70;;;;;;9174781;19;20017;-75
2023/08/18 10:19:19;;;;;;;13.50;9.48;;;21.30;79.60;;;;;;9174355;19;20010;-74
2023/08/18 10:22:31;;;;;;;12.88;8.55;;;21.40;79.60;;;;;;9175921;19;20040;-75
2023/08/18 10:25:40;;;;;;;18.73;9.57;;;21.40;79.50;;;;;;9174998;19;20579;-76
2023/08/18 10:28:56;;;;;;;14.00;8.88;;;21.50;79.50;;;;;;9175231;19;20014;-75
2023/08/18 10:32:09;;;;;;;21.35;11.70;;;21.50;79.50;;;;;;9176848;19;20464;-74
2023/08/18 10:35:27;;;;;;;15.13;9.63;;;21.60;79.40;;;;;;9185904;19;20023;-75
2023/08/18 10:38:40;;;;;;;17.15;9.90;;;21.70;79.40;;;;;;9182395;19;20019;-76
2023/08/18 10:42:12;;;;;;;15.75;10.77;;;21.70;79.30;;;;;;9184747;19;20029;-75
2023/08/18 10:45:31;;;;;;;16.98;10.98;;;21.80;79.30;;;;;;9181690;19;20358;-74
2023/08/18 10:48:42;;;;;;;17.75;10.63;;;21.90;79.30;;;;;;9180519;19;20463;-73
2023/08/18 10:52:04;;;;;;;20.65;9.70;;;22.00;79.30;;;;;;9183428;19;20476;-69
2023/08/18 10:55:12;;;;;;;15.18;10.45;;;22.10;79.20;;;;;;9184078;19;20014;-67
2023/08/18 10:58:17;;;;;;;19.77;11.32;;;22.20;79.20;;;;;;9178441;19;20019;-71
2023/08/18 11:01:24;;;;;;;18.52;11.05;;;22.20;79.10;;;;;;9184512;19;20014;-74
2023/08/18 11:04:31;;;;;;;16.70;10.40;;;22.40;79.10;;;;;;9183409;19;20430;-75
2023/08/18 11:07:41;;;;;;;18.30;11.93;;;22.50;79.00;;;;;;9182606;19;20500;-75
2023/08/18 11:10:47;;;;;;;15.57;10.60;;;22.60;78.90;;;;;;9183787;19;20010;-72
2023/08/18 11:13:57;;;;;;;18.42;11.00;;;22.70;78.80;;;;;;9178494;19;20047;-71
2023/08/18 11:17:03;;;;;;;17.08;10.65;;;22.80;78.70;;;;;;9181114;19;20421;-72
2023/08/18 11:20:20;;;;;;;16.27;11.05;;;22.90;78.60;;;;;;9183282;19;20038;-70
2023/08/18 11:23:31;;;;;;;17.90;10.23;;;22.90;78.40;;;;;;9181481;19;20018;-75
2023/08/18 11:26:40;;;;;;;15.70;10.80;;;23.00;78.30;;;;;;9178991;19;20014;-73
2023/08/18 11:29:50;;;;;;;18.80;11.18;;;23.10;78.20;;;;;;9180458;19;20010;-74
2023/08/18 11:33:00;;;;;;;17.20;10.63;;;23.20;78.20;;;;;;9179587;19;20022;-73
2023/08/18 11:36:07;;;;;;;15.23;10.50;;;23.30;78.20;;;;;;9180208;19;20606;-71
2023/08/18 11:39:18;;;;;;;16.50;10.98;;;23.40;78.10;;;;;;9180220;19;20011;-68
2023/08/18 11:42:24;;;;;;;18.17;10.40;;;23.50;78.00;;;;;;9177982;19;20356;-73
2023/08/18 11:45:32;;;;;;;17.80;11.63;;;23.60;77.90;;;;;;9178529;19;20018;-74
2023/08/18 11:48:40;;;;;;;17.17;11.88;;;23.70;77.80;;;;;;9177967;19;20481;-72
2023/08/18 11:51:59;;;;;;;19.92;12.15;;;23.90;77.80;;;;;;9179682;19;20018;-70
2023/08/18 11:55:11;;;;;;;16.25;10.93;;;24.00;77.50;;;;;;9178455;19;20140;-70
2023/08/18 11:58:19;;;;;;;19.50;11.93;;;24.10;77.60;;;;;;9176981;19;20007;-72
2023/08/18 12:01:33;;;;;;;28.63;12.13;;;24.20;77.40;;;;;;9179644;19;20022;-74
2023/08/18 12:04:51;;;;;;;15.07;10.02;;;24.30;77.30;;;;;;9180230;19;20023;-72
2023/08/18 12:07:57;;;;;;;17.27;11.20;;;24.50;77.40;;;;;;9180223;19;20052;-70
2023/08/18 12:11:07;;;;;;;17.98;10.45;;;24.60;77.30;;;;;;9181644;19;20376;-72
2023/08/18 12:14:12;;;;;;;15.25;10.73;;;24.80;77.20;;;;;;9178963;19;20361;-71
2023/08/18 12:17:22;;;;;;;20.40;11.68;;;24.90;77.00;;;;;;9179004;19;20022;-77
2023/08/18 12:20:29;;;;;;;13.27;9.45;;;25.10;76.80;;;;;;9179278;19;20011;-74
2023/08/18 12:23:37;;;;;;;18.73;10.88;;;25.30;76.60;;;;;;9180901;19;20019;-74
2023/08/18 12:26:45;;;;;;;18.10;11.02;;;25.40;76.40;;;;;;9180865;19;20011;-74
2023/08/18 12:29:52;;;;;;;19.85;11.82;;;25.60;76.30;;;;;;9178862;19;20006;-71
2023/08/18 12:32:58;;;;;;;15.73;10.68;;;25.70;76.10;;;;;;9180203;19;20494;-74
2023/08/18 12:36:06;;;;;;;15.77;11.02;;;25.80;75.90;;;;;;9176890;19;20014;-74
2023/08/18 12:39:12;;;;;;;21.55;11.93;;;25.90;75.80;;;;;;9173863;19;20121;-74
2023/08/18 12:42:26;;;;;;;17.40;10.45;;;26.00;75.70;;;;;;9176353;19;20010;-74
2023/08/18 12:45:35;;;;;;;18.17;11.40;;;26.20;75.60;;;;;;9178660;19;20022;-74
2023/08/18 12:48:44;;;;;;;16.67;11.60;;;26.30;75.40;;;;;;9177092;19;20482;-72
2023/08/18 12:51:49;;;;;;;18.50;11.73;;;26.50;75.30;;;;;;9178137;19;20014;-74
2023/08/18 12:54:57;;;;;;;21.80;10.93;;;26.60;75.10;;;;;;9172334;19;20467;-75
2023/08/18 12:58:05;;;;;;;21.55;11.32;;;26.70;75.00;;;;;;9170795;19;20025;-71
2023/08/18 13:01:13;;;;;;;19.95;11.98;;;26.90;74.80;;;;;;9179337;19;20030;-72
2023/08/18 13:04:18;;;;;;;15.65;10.23;;;27.00;74.60;;;;;;9179498;19;20417;-70
2023/08/18 13:07:27;;;;;;;13.00;8.18;;;27.10;74.30;;;;;;9179754;19;20018;-68
2023/08/18 13:10:32;;;;;;;18.52;10.55;;;27.20;74.20;;;;;;9178617;19;20019;-70
2023/08/18 13:13:43;;;;;;;15.00;10.15;;;27.30;74.10;;;;;;9178619;19;20018;-69
2023/08/18 13:16:49;;;;;;;15.98;9.05;;;27.40;73.70;;;;;;9177532;19;20026;-68
2023/08/18 13:19:57;;;;;;;17.85;9.30;;;27.50;73.80;;;;;;9175447;19;20018;-69
2023/08/18 13:23:03;;;;;;;12.77;9.10;;;27.60;73.60;;;;;;9177116;19;20111;-70
2023/08/18 13:26:10;;;;;;;17.13;10.27;;;27.70;73.40;;;;;;9178189;19;20018;-69
2023/08/18 13:29:20;;;;;;;16.90;9.75;;;27.80;73.20;;;;;;9178529;19;20014;-69
2023/08/18 13:32:31;;;;;;;;;;;27.80;72.90;;;;;;9177937;19;20018;-69
2023/08/18 13:35:37;;;;;;;11.98;8.20;;;27.90;73.30;;;;;;9174953;19;19934;-66
2023/08/18 13:38:44;;;;;;;16.33;8.63;;;28.00;73.20;;;;;;9177990;19;20025;-67
2023/08/18 13:41:49;;;;;;;14.40;10.32;;;28.00;72.90;;;;;;9176659;19;20010;-67
2023/08/18 13:44:59;;;;;;;14.95;9.27;;;28.10;72.80;;;;;;9178757;19;20047;-70
2023/08/18 13:48:05;;;;;;;13.98;9.27;;;28.10;72.40;;;;;;9175945;19;20516;-67
2023/08/18 13:51:13;;;;;;;10.10;7.38;;;28.20;72.40;;;;;;9178014;19;20024;-66
2023/08/18 13:54:18;;;;;;;15.15;8.48;;;28.20;72.20;;;;;;9176476;19;20052;-68
2023/08/18 13:57:25;;;;;;;16.67;8.25;;;28.30;72.00;;;;;;9172606;19;20380;-69
2023/08/18 14:00:33;;;;;;;13.05;8.50;;;28.30;71.90;;;;;;9178109;19;20014;-69
2023/08/18 14:03:41;;;;;;;9.85;7.35;;;28.40;71.80;;;;;;9175684;19;20014;-71
2023/08/18 14:06:46;;;;;;;12.02;7.60;;;28.50;71.80;;;;;;9176101;19;20029;-69
2023/08/18 14:09:54;;;;;;;17.20;9.25;;;28.50;71.60;;;;;;9177063;19;20017;-71
2023/08/18 14:12:59;;;;;;;12.50;8.60;;;28.60;71.50;;;;;;9174124;19;20038;-70
2023/08/18 14:16:09;;;;;;;14.43;8.57;;;28.70;71.30;;;;;;9175171;19;20490;-68
2023/08/18 14:19:16;;;;;;;13.05;8.02;;;28.70;71.00;;;;;;9175363;19;20014;-68
2023/08/18 14:22:23;;;;;;;16.02;6.85;;;28.70;70.90;;;;;;9172170;19;20482;-68
2023/08/18 14:25:29;;;;;;;9.43;7.30;;;28.80;70.80;;;;;;9176817;19;20679;-69
2023/08/18 14:28:37;;;;;;;14.20;8.38;;;28.80;70.70;;;;;;9174453;19;20019;-68
2023/08/18 14:31:45;;;;;;;10.27;7.28;;;28.90;70.60;;;;;;9175877;19;20019;-69
2023/08/18 14:34:55;;;;;;;12.85;9.95;;;28.90;70.40;;;;;;9174979;19;20794;-70
2023/08/18 14:38:01;;;;;;;14.43;8.18;;;28.90;70.30;;;;;;9176465;19;20361;-69
2023/08/18 14:41:08;;;;;;;12.65;8.40;;;28.90;70.30;;;;;;9176385;19;20356;-68
2023/08/18 14:44:13;;;;;;;11.73;7.60;;;28.90;70.10;;;;;;9174312;19;20479;-70
2023/08/18 14:47:23;;;;;;;9.80;7.07;;;28.90;70.00;;;;;;9175456;19;20601;-71
2023/08/18 14:50:29;;;;;;;14.02;8.15;;;29.00;70.00;;;;;;9175642;19;20086;-68
2023/08/18 14:53:36;;;;;;;11.27;7.35;;;29.00;70.10;;;;;;9175647;19;20019;-68
2023/08/18 14:56:41;;;;;;;12.75;8.00;;;29.00;70.00;;;;;;9168479;19;20018;-69
2023/08/18 14:59:49;;;;;;;9.82;7.15;;;29.00;69.80;;;;;;9175727;19;20128;-71
2023/08/18 15:02:57;;;;;;;20.38;8.07;;;29.00;69.80;;;;;;9175001;19;20014;-69
2023/08/18 15:06:07;;;;;;;;;;;29.00;69.60;;;;;;9174767;19;20018;-68
2023/08/18 15:09:15;;;;;;;13.15;6.82;;;29.00;70.10;;;;;;9175186;19;19918;-70
2023/08/18 15:12:24;;;;;;;9.93;6.90;;;29.00;69.90;;;;;;9176006;19;20484;-67
2023/08/18 15:15:29;;;;;;;10.70;7.20;;;29.00;69.60;;;;;;9174001;19;20023;-68
2023/08/18 15:18:39;;;;;;;9.60;6.35;;;29.10;69.50;;;;;;9175217;19;20961;-67
2023/08/18 15:21:45;;;;;;;9.18;6.30;;;29.10;69.40;;;;;;9182888;19;20010;-67
2023/08/18 15:24:54;;;;;;;9.10;6.55;;;29.10;69.50;;;;;;9181573;19;20029;-69
2023/08/18 15:28:03;;;;;;;14.95;6.93;;;29.10;69.50;;;;;;9181015;19;20464;-70
2023/08/18 15:31:17;;;;;;;10.43;6.47;;;29.10;69.30;;;;;;9181031;19;20018;-67
2023/08/18 15:34:25;;;;;;;11.10;6.85;;;29.10;69.30;;;;;;9182043;19;20027;-71
2023/08/18 15:37:32;;;;;;;8.60;6.22;;;29.10;69.20;;;;;;9182000;19;20471;-67
2023/08/18 15:40:43;;;;;;;9.00;5.60;;;29.10;69.20;;;;;;9180611;19;20025;-70
2023/08/18 15:43:50;;;;;;;9.40;5.88;;;29.10;69.10;;;;;;9181434;19;20022;-67
2023/08/18 15:46:55;;;;;;;10.00;6.50;;;29.10;69.20;;;;;;9182780;19;20041;-70
2023/08/18 15:50:06;;;;;;;8.38;5.85;;;29.10;69.20;;;;;;9182920;19;20022;-69
2023/08/18 15:53:11;;;;;;;8.20;6.22;;;29.10;69.10;;;;;;9182367;19;20074;-68
2023/08/18 15:56:19;;;;;;;12.65;6.43;;;29.10;69.30;;;;;;9174196;19;20023;-71
2023/08/18 15:59:26;;;;;;;11.20;5.90;;;29.10;69.30;;;;;;9178192;19;20025;-68
2023/08/18 16:02:34;;;;;;;13.10;6.70;;;29.00;69.20;;;;;;9174496;19;20010;-66
2023/08/18 16:05:42;;;;;;;8.63;6.18;;;29.10;69.10;;;;;;9181888;19;20022;-69
2023/08/18 16:08:50;;;;;;;12.27;7.60;;;29.00;69.00;;;;;;9180056;19;20018;-69